Time;durP1;ratioP1;P1;durP2;ratioP2;P2;SDS_P1;SDS_P2;PMS_P1;PMS_P2;Temp;Humidity;BMP_temperature;BMP_pressure;BME280_temperature;BME280_humidity;BME280_pressure;Samples;Min_cycle;Max_cycle;Signal;HPM_P1;HPM_P2
2023/05/18 00:02:15;;;;;;;9.38;3.17;;;;;;;;;;4970380;28;20046;-87
2023/05/18 00:04:41;;;;;;;9.23;3.30;;;;;;;;;;4976323;28;20059;-86
2023/05/18 00:07:08;;;;;;;8.38;3.15;;;;;;;;;;4951449;28;20130;-87
2023/05/18 00:09:35;;;;;;;8.85;4.30;;;;;;;;;;4959508;28;20057;-86
2023/05/18 00:12:01;;;;;;;5.07;3.10;;;;;;;;;;4964996;28;20066;-87
2023/05/18 00:14:27;;;;;;;8.95;3.38;;;;;;;;;;4949908;28;20050;-86
2023/05/18 00:16:53;;;;;;;8.98;3.08;;;;;;;;;;4955970;28;20528;-87
2023/05/18 00:19:20;;;;;;;8.52;3.10;;;;;;;;;;4954956;28;20046;-86
2023/05/18 00:21:46;;;;;;;7.03;3.22;;;;;;;;;;4946801;28;20047;-86
2023/05/18 00:24:13;;;;;;;9.77;3.45;;;;;;;;;;5055313;28;20050;-86
2023/05/18 00:26:40;;;;;;;5.13;2.85;;;;;;;;;;4960173;28;20050;-87
2023/05/18 00:29:06;;;;;;;8.35;3.65;;;;;;;;;;4967934;28;20043;-86
2023/05/18 00:31:35;;;;;;;7.82;3.30;;;;;;;;;;4958560;28;20069;-87
2023/05/18 00:34:02;;;;;;;5.15;3.00;;;;;;;;;;4968477;28;20061;-86
2023/05/18 00:36:28;;;;;;;8.68;3.72;;;;;;;;;;4950006;28;20043;-87
2023/05/18 00:38:53;;;;;;;9.48;3.63;;;;;;;;;;4954617;28;20047;-87
2023/05/18 00:41:20;;;;;;;6.03;3.13;;;;;;;;;;4949967;28;20496;-86
2023/05/18 00:43:46;;;;;;;10.88;3.67;;;;;;;;;;4965973;28;20507;-87
2023/05/18 00:46:12;;;;;;;14.80;3.88;;;;;;;;;;4967110;28;20126;-86
2023/05/18 00:48:38;;;;;;;8.73;3.75;;;;;;;;;;4966031;28;20051;-86
2023/05/18 00:51:05;;;;;;;11.95;4.60;;;;;;;;;;4971866;28;20049;-86
2023/05/18 00:53:31;;;;;;;10.38;4.03;;;;;;;;;;4949859;28;20100;-87
2023/05/18 00:55:58;;;;;;;6.45;3.50;;;;;;;;;;4965298;28;20507;-87
2023/05/18 00:58:25;;;;;;;9.35;4.13;;;;;;;;;;5038669;28;20085;-87
2023/05/18 01:00:52;;;;;;;12.00;3.92;;;;;;;;;;4972996;28;20043;-87
2023/05/18 01:03:20;;;;;;;9.98;4.22;;;;;;;;;;4971367;28;20068;-87
2023/05/18 01:05:54;;;;;;;9.23;4.28;;;;;;;;;;4971885;28;20054;-87
2023/05/18 01:08:20;;;;;;;9.23;3.90;;;;;;;;;;4967070;28;20046;-87
2023/05/18 01:10:50;;;;;;;7.60;4.40;;;;;;;;;;4950806;28;20047;-86
2023/05/18 01:13:20;;;;;;;7.82;3.60;;;;;;;;;;4952562;28;20034;-87
2023/05/18 01:15:47;;;;;;;8.05;3.53;;;;;;;;;;4975814;28;20096;-87
2023/05/18 01:18:21;;;;;;;7.82;3.88;;;;;;;;;;4961744;28;20042;-86
2023/05/18 01:20:49;;;;;;;6.90;4.32;;;;;;;;;;4947036;28;20039;-86
2023/05/18 01:23:34;;;;;;;9.10;3.88;;;;;;;;;;4962362;28;20047;-87
2023/05/18 01:26:06;;;;;;;5.70;3.35;;;;;;;;;;4978595;28;20526;-87
2023/05/18 01:28:32;;;;;;;7.28;3.92;;;;;;;;;;4980135;28;20046;-86
2023/05/18 01:30:59;;;;;;;8.80;3.67;;;;;;;;;;4970742;28;20046;-87
2023/05/18 01:33:25;;;;;;;6.45;3.60;;;;;;;;;;5043748;28;20042;-86
2023/05/18 01:35:51;;;;;;;8.95;3.85;;;;;;;;;;4954402;28;20068;-87
2023/05/18 01:38:20;;;;;;;7.03;3.95;;;;;;;;;;4973016;28;20450;-86
2023/05/18 01:40:49;;;;;;;7.85;3.75;;;;;;;;;;4957406;28;20561;-86
2023/05/18 01:43:17;;;;;;;14.43;4.45;;;;;;;;;;4954985;28;20051;-88
2023/05/18 01:45:45;;;;;;;9.52;3.90;;;;;;;;;;4969029;28;20499;-86
2023/05/18 01:48:13;;;;;;;7.15;4.25;;;;;;;;;;4970040;28;20067;-86
2023/05/18 01:50:41;;;;;;;8.68;3.92;;;;;;;;;;4974449;28;20043;-86
2023/05/18 01:53:28;;;;;;;10.88;4.07;;;;;;;;;;4978424;28;20073;-86
2023/05/18 01:55:54;;;;;;;14.32;5.00;;;;;;;;;;4961903;28;20929;-87
2023/05/18 01:58:21;;;;;;;10.90;4.18;;;;;;;;;;4956211;28;20081;-87
2023/05/18 02:00:47;;;;;;;9.57;4.18;;;;;;;;;;4952544;28;20450;-87
2023/05/18 02:03:14;;;;;;;10.05;3.97;;;;;;;;;;4972049;28;20038;-87
2023/05/18 02:05:40;;;;;;;8.02;3.20;;;;;;;;;;4978759;28;20077;-86
2023/05/18 02:08:06;;;;;;;7.80;4.00;;;;;;;;;;4956306;28;20074;-85
2023/05/18 02:10:32;;;;;;;8.70;3.53;;;;;;;;;;5040537;28;20484;-87
2023/05/18 02:12:58;;;;;;;9.52;4.22;;;;;;;;;;4969692;28;20116;-86
2023/05/18 02:15:24;;;;;;;9.90;4.30;;;;;;;;;;4954685;28;20054;-86
2023/05/18 02:17:50;;;;;;;8.75;3.60;;;;;;;;;;4971427;28;20396;-86
2023/05/18 02:20:17;;;;;;;8.60;3.88;;;;;;;;;;4977745;28;20151;-87
2023/05/18 02:22:43;;;;;;;8.77;4.13;;;;;;;;;;4976580;28;20042;-86
2023/05/18 02:25:10;;;;;;;9.30;3.65;;;;;;;;;;4953387;28;20644;-86
2023/05/18 02:27:36;;;;;;;11.32;4.13;;;;;;;;;;4959336;28;20046;-86
2023/05/18 02:30:07;;;;;;;12.27;4.43;;;;;;;;;;4953394;28;20101;-86
2023/05/18 02:32:37;;;;;;;11.02;5.13;;;;;;;;;;4969384;28;20488;-86
2023/05/18 02:35:04;;;;;;;7.78;3.58;;;;;;;;;;4968187;28;20053;-87
2023/05/18 02:37:33;;;;;;;10.23;4.72;;;;;;;;;;4968051;28;20535;-87
2023/05/18 02:40:00;;;;;;;5.40;3.78;;;;;;;;;;4952561;28;20050;-86
2023/05/18 02:42:26;;;;;;;6.80;4.15;;;;;;;;;;4969599;28;20060;-86
2023/05/18 02:44:52;;;;;;;8.48;4.18;;;;;;;;;;4968618;28;20039;-86
2023/05/18 02:47:18;;;;;;;11.60;3.40;;;;;;;;;;4968327;28;20507;-87
2023/05/18 02:49:44;;;;;;;10.50;4.47;;;;;;;;;;4951316;28;20046;-86
2023/05/18 02:52:10;;;;;;;10.90;4.45;;;;;;;;;;4968709;28;20054;-87
2023/05/18 02:54:36;;;;;;;8.02;4.10;;;;;;;;;;4966418;28;20051;-87
2023/05/18 02:57:02;;;;;;;7.80;4.20;;;;;;;;;;4967765;28;20057;-86
2023/05/18 02:59:28;;;;;;;7.47;3.90;;;;;;;;;;4951445;28;20042;-87
2023/05/18 03:01:54;;;;;;;9.15;3.40;;;;;;;;;;4967841;28;20062;-86
2023/05/18 03:04:20;;;;;;;8.88;5.90;;;;;;;;;;4967733;28;20050;-87
2023/05/18 03:06:51;;;;;;;9.07;4.35;;;;;;;;;;4962270;28;20149;-86
2023/05/18 03:09:18;;;;;;;7.35;4.18;;;;;;;;;;4973648;28;20046;-87
2023/05/18 03:11:44;;;;;;;7.05;4.20;;;;;;;;;;4951201;28;20084;-86
2023/05/18 03:14:10;;;;;;;7.72;4.35;;;;;;;;;;4952578;28;20052;-86
2023/05/18 03:16:37;;;;;;;8.18;4.32;;;;;;;;;;4954888;28;20583;-86
2023/05/18 03:19:03;;;;;;;7.30;4.63;;;;;;;;;;4951866;28;20549;-88
2023/05/18 03:21:32;;;;;;;10.32;4.63;;;;;;;;;;4965185;28;20050;-86
2023/05/18 03:24:02;;;;;;;8.38;4.05;;;;;;;;;;4970358;28;20054;-87
2023/05/18 03:26:31;;;;;;;6.60;3.92;;;;;;;;;;4972429;28;20054;-88
2023/05/18 03:28:58;;;;;;;11.25;4.03;;;;;;;;;;4963222;28;20048;-87
2023/05/18 03:31:24;;;;;;;10.77;4.53;;;;;;;;;;4967999;28;20053;-87
2023/05/18 03:33:50;;;;;;;11.20;3.80;;;;;;;;;;4950417;28;20480;-86
2023/05/18 03:36:16;;;;;;;7.50;4.10;;;;;;;;;;4951331;28;20064;-87
2023/05/18 03:38:45;;;;;;;9.32;4.00;;;;;;;;;;4956695;28;20117;-88
2023/05/18 03:41:12;;;;;;;9.93;4.10;;;;;;;;;;4950993;28;20074;-87
2023/05/18 03:43:37;;;;;;;7.53;4.03;;;;;;;;;;4950538;28;20550;-87
2023/05/18 03:46:03;;;;;;;11.77;3.78;;;;;;;;;;4970704;28;20043;-88
2023/05/18 03:48:29;;;;;;;7.38;3.95;;;;;;;;;;4951897;28;20050;-86
2023/05/18 03:50:56;;;;;;;9.25;4.20;;;;;;;;;;4958715;28;20097;-86
2023/05/18 03:53:22;;;;;;;9.70;3.80;;;;;;;;;;4951252;28;20152;-86
2023/05/18 03:55:48;;;;;;;7.03;3.88;;;;;;;;;;4950634;28;20575;-86
2023/05/18 03:58:14;;;;;;;6.28;4.13;;;;;;;;;;4950950;28;20092;-86
2023/05/18 04:00:41;;;;;;;7.65;3.78;;;;;;;;;;4968630;28;20043;-86
2023/05/18 04:03:11;;;;;;;9.48;3.90;;;;;;;;;;4960707;28;20450;-86
2023/05/18 04:05:37;;;;;;;8.50;3.85;;;;;;;;;;4967281;28;20047;-87
2023/05/18 04:08:04;;;;;;;8.57;3.95;;;;;;;;;;4979895;28;20042;-86
2023/05/18 04:10:30;;;;;;;9.77;3.95;;;;;;;;;;4950160;28;20153;-87
2023/05/18 04:12:56;;;;;;;13.45;4.53;;;;;;;;;;4968114;28;20039;-86
2023/05/18 04:15:22;;;;;;;7.93;3.95;;;;;;;;;;4950988;28;20061;-87
2023/05/18 04:17:49;;;;;;;9.57;4.07;;;;;;;;;;4956651;28;20116;-87
2023/05/18 04:20:15;;;;;;;7.95;4.57;;;;;;;;;;4955611;28;20172;-85
2023/05/18 04:22:42;;;;;;;7.28;3.85;;;;;;;;;;4968583;28;20512;-86
2023/05/18 04:25:12;;;;;;;8.18;4.38;;;;;;;;;;4966166;28;20053;-87
2023/05/18 04:27:40;;;;;;;7.07;3.88;;;;;;;;;;4947489;28;20053;-87
2023/05/18 04:30:07;;;;;;;10.68;4.32;;;;;;;;;;4967788;28;20064;-88
2023/05/18 04:32:35;;;;;;;9.55;4.32;;;;;;;;;;4968927;28;20074;-88
2023/05/18 04:35:02;;;;;;;6.10;4.07;;;;;;;;;;4967300;28;20038;-88
2023/05/18 04:37:29;;;;;;;6.78;4.10;;;;;;;;;;4944959;28;20134;-90
2023/05/18 04:39:55;;;;;;;7.40;4.38;;;;;;;;;;4955128;28;20094;-88
2023/05/18 04:42:21;;;;;;;13.32;4.70;;;;;;;;;;5031021;28;20496;-89
2023/05/18 04:44:47;;;;;;;10.02;4.07;;;;;;;;;;4964655;28;20441;-89
2023/05/18 04:47:13;;;;;;;7.60;4.10;;;;;;;;;;4944226;28;20062;-88
2023/05/18 04:49:39;;;;;;;7.03;3.88;;;;;;;;;;4959673;28;20046;-89
2023/05/18 04:52:09;;;;;;;7.95;3.92;;;;;;;;;;4963386;28;20035;-89
2023/05/18 04:54:35;;;;;;;7.25;4.55;;;;;;;;;;4945124;28;20055;-89
2023/05/18 04:57:02;;;;;;;9.57;4.15;;;;;;;;;;4946073;28;20046;-88
2023/05/18 04:59:28;;;;;;;10.55;3.80;;;;;;;;;;4959821;28;20047;-88
2023/05/18 05:01:57;;;;;;;8.77;4.15;;;;;;;;;;4962564;28;20119;-88
2023/05/18 05:04:23;;;;;;;12.85;5.00;;;;;;;;;;4963947;28;20389;-89
2023/05/18 05:06:49;;;;;;;9.18;3.25;;;;;;;;;;4942111;28;20039;-90
2023/05/18 05:09:15;;;;;;;7.65;3.72;;;;;;;;;;4942955;28;20062;-88
2023/05/18 05:11:41;;;;;;;5.28;3.50;;;;;;;;;;4977495;28;20548;-88
2023/05/18 05:14:07;;;;;;;8.18;3.70;;;;;;;;;;4960754;28;20039;-89
2023/05/18 05:16:34;;;;;;;7.13;3.00;;;;;;;;;;4965745;28;20038;-88
2023/05/18 05:19:00;;;;;;;9.13;3.45;;;;;;;;;;4967809;28;20035;-89
2023/05/18 05:21:26;;;;;;;6.57;2.95;;;;;;;;;;4945172;28;20100;-89
2023/05/18 05:23:55;;;;;;;10.15;3.70;;;;;;;;;;4972830;28;20048;-88
2023/05/18 05:26:21;;;;;;;8.93;3.42;;;;;;;;;;4945710;28;20490;-88
2023/05/18 05:28:47;;;;;;;10.25;4.00;;;;;;;;;;4963409;28;20038;-88
2023/05/18 05:31:13;;;;;;;11.65;3.75;;;;;;;;;;4959740;28;20424;-85
2023/05/18 05:33:39;;;;;;;12.07;4.13;;;;;;;;;;4984635;28;20068;-85
2023/05/18 05:36:07;;;;;;;9.52;3.30;;;;;;;;;;4946502;28;20169;-86
2023/05/18 05:38:33;;;;;;;10.80;3.22;;;;;;;;;;4943845;28;20039;-86
2023/05/18 05:40:59;;;;;;;7.78;3.55;;;;;;;;;;4963372;28;20044;-88
2023/05/18 05:43:25;;;;;;;12.75;4.50;;;;;;;;;;4960488;28;20043;-86
2023/05/18 05:45:51;;;;;;;9.10;3.55;;;;;;;;;;4960432;28;20043;-86
2023/05/18 05:48:17;;;;;;;9.45;3.20;;;;;;;;;;4975969;28;20496;-90
2023/05/18 05:50:43;;;;;;;7.68;3.58;;;;;;;;;;4966516;28;20521;-89
2023/05/18 05:53:09;;;;;;;9.23;2.78;;;;;;;;;;4965124;28;20100;-87
2023/05/18 05:55:40;;;;;;;12.63;3.67;;;;;;;;;;4965707;28;20457;-88
2023/05/18 05:58:06;;;;;;;9.07;3.13;;;;;;;;;;4974998;28;20071;-88
2023/05/18 06:00:32;;;;;;;11.70;3.42;;;;;;;;;;4958137;28;20047;-87
2023/05/18 06:03:07;;;;;;;9.82;3.35;;;;;;;;;;4966869;28;20270;-91
2023/05/18 06:05:33;;;;;;;7.63;2.60;;;;;;;;;;4963511;28;20046;-86
2023/05/18 06:07:59;;;;;;;10.82;3.33;;;;;;;;;;4968264;28;20126;-87
2023/05/18 06:10:29;;;;;;;8.48;3.08;;;;;;;;;;4990936;28;20043;-87
2023/05/18 06:12:56;;;;;;;4.57;2.38;;;;;;;;;;4974493;28;20047;-87
2023/05/18 06:15:22;;;;;;;7.13;2.30;;;;;;;;;;4970683;28;20069;-88
2023/05/18 06:17:48;;;;;;;7.68;2.95;;;;;;;;;;4970151;28;20039;-88
2023/05/18 06:20:53;;;;;;;6.25;2.47;;;;;;;;;;4977858;28;20500;-88
2023/05/18 06:23:29;;;;;;;13.15;2.65;;;;;;;;;;4972242;28;20220;-88
2023/05/18 06:25:55;;;;;;;8.88;2.80;;;;;;;;;;4957697;28;20039;-87
2023/05/18 06:28:21;;;;;;;7.57;3.17;;;;;;;;;;4958946;28;20479;-88
2023/05/18 06:31:17;;;;;;;4.72;2.60;;;;;;;;;;4974267;28;20050;-87
2023/05/18 06:33:44;;;;;;;8.43;3.85;;;;;;;;;;5006770;28;20138;-88
2023/05/18 06:36:10;;;;;;;10.27;2.53;;;;;;;;;;4987435;28;20038;-88
2023/05/18 06:38:42;;;;;;;7.50;2.63;;;;;;;;;;4970746;28;20495;-87
2023/05/18 06:41:11;;;;;;;11.13;2.78;;;;;;;;;;5014810;28;20086;-88
2023/05/18 06:43:49;;;;;;;10.82;4.40;;;;;;;;;;4959748;28;20081;-88
2023/05/18 06:46:25;;;;;;;10.90;3.38;;;;;;;;;;4964845;28;20051;-88
2023/05/18 06:48:51;;;;;;;11.48;3.30;;;;;;;;;;4976485;28;20523;-87
2023/05/18 06:51:33;;;;;;;;;;;;;;;;;;;;;
2023/05/18 06:57:42;;;;;;;11.13;3.47;;;;;;;;;;4972304;28;20072;-89
2023/05/18 07:00:21;;;;;;;;;;;;;;;;;;;;;
2023/05/18 07:03:00;;;;;;;12.15;2.58;;;;;;;;;;4979508;28;20641;-89
2023/05/18 07:05:26;;;;;;;10.30;3.05;;;;;;;;;;4975640;28;20066;-90
2023/05/18 07:07:52;;;;;;;5.93;2.20;;;;;;;;;;4974328;28;20433;-88
2023/05/18 07:10:18;;;;;;;7.90;2.53;;;;;;;;;;4965444;28;20488;-88
2023/05/18 07:12:53;;;;;;;6.28;2.42;;;;;;;;;;4980027;28;20062;-89
2023/05/18 07:15:52;;;;;;;8.13;2.33;;;;;;;;;;4988238;28;20062;-91
2023/05/18 07:18:46;;;;;;;;;;;;;;;;;;;;;
2023/05/18 07:21:06;;;;;;;7.55;2.20;;;;;;;;;;4998036;23;20119;-70
2023/05/18 07:25:58;;;;;;;8.50;3.20;;;;;;;;;;4981599;23;20063;-68
2023/05/18 07:28:24;;;;;;;12.27;3.13;;;;;;;;;;4964681;28;20133;-68
2023/05/18 07:30:50;;;;;;;10.93;2.83;;;;;;;;;;4963932;28;20062;-68
2023/05/18 07:33:16;;;;;;;8.40;2.33;;;;;;;;;;4955926;28;20495;-69
2023/05/18 07:35:42;;;;;;;6.75;2.67;;;;;;;;;;4948938;28;20039;-67
2023/05/18 07:38:17;;;;;;;6.60;3.20;;;;;;;;;;4970097;28;20046;-71
2023/05/18 07:41:02;;;;;;;8.15;2.80;;;;;;;;;;4983799;28;20092;-71
2023/05/18 07:54:09;;;;;;;5.57;2.35;;;;;;;;;;3359260;26;20431;-69
2023/05/18 07:56:35;;;;;;;6.22;2.60;;;;;;;;;;5024931;28;20083;-68
2023/05/18 07:59:02;;;;;;;9.80;2.80;;;;;;;;;;5009295;28;20463;-68
2023/05/18 08:01:29;;;;;;;7.53;2.47;;;;;;;;;;5026155;28;20049;-68
2023/05/18 08:03:55;;;;;;;10.75;2.55;;;;;;;;;;5028110;28;20037;-68
2023/05/18 08:06:21;;;;;;;6.38;2.30;;;10.00;99.90;;;;;;5009132;28;20045;-68
2023/05/18 08:08:47;;;;;;;6.70;2.65;;;;;;;;;;5026416;28;20045;-68
2023/05/18 08:11:13;;;;;;;5.03;2.55;;;;;;;;;;5027137;28;20419;-69
2023/05/18 08:13:39;;;;;;;10.20;2.22;;;;;;;;;;5025601;28;20042;-68
2023/05/18 08:16:05;;;;;;;8.00;2.00;;;;;;;;;;5029365;28;20115;-69
2023/05/18 08:18:31;;;;;;;9.68;2.55;;;;;;;;;;5025944;28;20051;-68
2023/05/18 08:20:57;;;;;;;7.72;2.53;;;;;;;;;;5025977;28;20045;-68
2023/05/18 08:23:24;;;;;;;7.63;2.65;;;;;;;;;;5027752;28;20052;-69
2023/05/18 08:25:50;;;;;;;8.00;2.53;;;;;;;;;;5023208;28;20052;-69
2023/05/18 08:28:16;;;;;;;7.45;2.40;;;;;;;;;;5024445;28;20037;-69
2023/05/18 08:30:42;;;;;;;7.53;2.17;;;;;;;;;;5028534;28;20099;-69
2023/05/18 08:33:08;;;;;;;5.57;1.92;;;;;;;;;;5027831;28;20045;-69
2023/05/18 08:35:34;;;;;;;7.40;2.63;;;;;;;;;;5026662;28;20120;-68
2023/05/18 08:38:00;;;;;;;6.82;2.17;;;;;;;;;;5026630;28;20056;-68
2023/05/18 08:40:34;;;;;;;5.53;2.33;;;10.90;99.90;;;;;;5026019;28;20049;-68
2023/05/18 08:43:08;;;;;;;4.60;2.30;;;;;;;;;;5027457;28;20052;-70
2023/05/18 08:45:37;;;;;;;6.93;2.45;;;;;;;;;;5027307;28;20056;-67
2023/05/18 08:48:04;;;;;;;12.65;3.22;;;;;;;;;;5025410;28;20037;-68
2023/05/18 08:50:31;;;;;;;9.10;2.40;;;;;;;;;;5026391;28;20091;-68
2023/05/18 08:53:00;;;;;;;5.95;2.15;;;;;;;;;;5023467;28;20052;-67
2023/05/18 08:55:27;;;;;;;7.07;2.28;;;11.20;99.90;;;;;;5026015;28;20060;-70
2023/05/18 08:57:55;;;;;;;9.60;2.65;;;;;;;;;;5025371;28;20045;-70
2023/05/18 09:00:22;;;;;;;14.32;2.10;;;;;;;;;;5026246;28;20692;-68
2023/05/18 09:02:48;;;;;;;9.93;2.63;;;;;;;;;;5025126;28;20050;-70
2023/05/18 09:05:15;;;;;;;8.25;2.45;;;11.60;99.90;;;;;;5026870;28;20811;-69
2023/05/18 09:07:42;;;;;;;6.75;2.38;;;;;;;;;;5025186;28;20092;-69
2023/05/18 09:10:14;;;;;;;7.82;2.13;;;11.70;99.90;;;;;;5025119;28;20053;-70
2023/05/18 09:12:41;;;;;;;8.27;2.70;;;;;;;;;;5027403;28;20740;-70
2023/05/18 09:15:10;;;;;;;7.93;2.17;;;;;;;;;;5027731;28;20045;-67
2023/05/18 09:17:37;;;;;;;7.45;2.30;;;;;;;;;;5023646;28;20045;-67
2023/05/18 09:20:06;;;;;;;9.18;2.30;;;12.00;99.90;;;;;;5025741;28;20034;-68
2023/05/18 09:22:34;;;;;;;9.48;2.35;;;;;;;;;;5023336;28;20045;-68
2023/05/18 09:25:00;;;;;;;7.03;2.20;;;;;;;;;;5025468;28;20045;-68
2023/05/18 09:27:27;;;;;;;6.03;2.65;;;;;;;;;;5026137;28;20049;-67
2023/05/18 09:29:57;;;;;;;8.50;2.22;;;;;;;;;;5025536;28;20033;-66
2023/05/18 09:32:23;;;;;;;9.75;2.08;;;12.10;99.90;;;;;;5025354;28;20067;-67
2023/05/18 09:34:49;;;;;;;9.70;2.55;;;;;;;;;;5025648;28;20052;-67
2023/05/18 09:37:16;;;;;;;7.70;2.42;;;;;;;;;;5024961;28;20128;-67
2023/05/18 09:39:42;;;;;;;4.63;2.22;;;;;;;;;;5025934;28;20049;-67
2023/05/18 09:42:08;;;;;;;7.28;1.98;;;;;;;;;;5029014;28;20107;-68
2023/05/18 09:44:34;;;;;;;9.15;2.47;;;;;;;;;;5027601;28;20380;-69
2023/05/18 09:47:00;;;;;;;7.10;2.22;;;;;;;;;;5009560;28;20045;-68
2023/05/18 09:49:31;;;;;;;8.60;2.50;;;;;;;;;;5029907;28;20535;-68
2023/05/18 09:52:00;;;;;;;6.75;2.30;;;;;;;;;;5029329;28;20045;-68
2023/05/18 09:54:26;;;;;;;10.68;2.47;;;;;;;;;;5029225;28;20049;-67
2023/05/18 09:56:52;;;;;;;10.93;3.03;;;;;;;;;;5028131;28;20123;-68
2023/05/18 09:59:17;;;;;;;7.28;1.90;;;12.50;99.90;;;;;;5028703;28;20518;-68
2023/05/18 10:01:59;;;;;;;10.95;2.25;;;12.70;99.90;;;;;;5033351;28;20049;-68
2023/05/18 10:04:43;;;;;;;7.55;2.00;;;12.60;99.90;;;;;;5027360;28;20096;-68
2023/05/18 10:07:13;;;;;;;8.85;2.75;;;12.80;99.90;;;;;;5028302;28;20148;-69
2023/05/18 10:09:40;;;;;;;6.68;2.35;;;12.90;99.90;;;;;;5029474;28;20045;-69
2023/05/18 10:12:12;;;;;;;6.90;2.10;;;;;;;;;;5029967;28;20519;-69
2023/05/18 10:14:40;;;;;;;6.47;2.20;;;13.30;99.90;;;;;;5028599;28;20049;-69
2023/05/18 10:17:06;;;;;;;4.28;1.70;;;;;;;;;;5029550;28;20129;-68
2023/05/18 10:19:34;;;;;;;8.57;2.25;;;12.90;99.90;;;;;;5033065;28;20045;-69
2023/05/18 10:22:02;;;;;;;10.70;3.13;;;13.10;99.90;;;;;;5028816;28;20041;-68
2023/05/18 10:24:32;;;;;;;8.80;2.58;;;13.20;99.90;;;;;;5027965;28;20045;-68
2023/05/18 10:27:02;;;;;;;7.63;1.83;;;13.60;99.90;;;;;;5028857;28;20041;-68
2023/05/18 10:29:28;;;;;;;8.45;2.40;;;13.40;99.90;;;;;;5027418;28;20045;-69
2023/05/18 10:32:01;;;;;;;7.63;2.17;;;13.50;99.90;;;;;;5028724;28;20030;-67
2023/05/18 10:34:27;;;;;;;5.40;2.10;;;;;;;;;;5028310;28;20037;-67
2023/05/18 10:36:54;;;;;;;7.78;2.13;;;13.60;99.90;;;;;;5026645;28;20041;-67
2023/05/18 10:39:21;;;;;;;6.18;2.05;;;;;;;;;;5027163;28;20089;-67
2023/05/18 10:41:47;;;;;;;8.25;2.53;;;13.40;99.90;;;;;;5026383;28;20053;-67
2023/05/18 10:44:14;;;;;;;8.13;2.20;;;13.80;99.90;;;;;;5025546;28;20037;-67
2023/05/18 10:46:41;;;;;;;6.05;1.90;;;14.00;99.90;;;;;;5028086;28;20124;-67
2023/05/18 10:49:26;;;;;;;11.43;2.30;;;14.00;99.90;;;;;;5027824;28;20057;-67
2023/05/18 10:51:55;;;;;;;6.75;2.08;;;14.20;99.90;;;;;;5028081;28;20447;-67
2023/05/18 10:54:22;;;;;;;7.50;3.35;;;;;;;;;;5026313;28;20057;-68
2023/05/18 10:56:51;;;;;;;8.98;1.88;;;14.20;99.90;;;;;;5026255;28;20103;-68
2023/05/18 10:59:18;;;;;;;5.63;1.73;;;14.30;99.90;;;;;;5027753;28;20033;-68
2023/05/18 11:01:46;;;;;;;6.20;1.80;;;14.30;99.90;;;;;;5027665;28;20388;-68
2023/05/18 11:04:12;;;;;;;6.28;1.83;;;;;;;;;;5028186;28;20053;-68
2023/05/18 11:06:38;;;;;;;8.25;2.55;;;14.50;99.90;;;;;;5026253;28;20045;-68
2023/05/18 11:09:04;;;;;;;7.60;2.13;;;;;;;;;;5027841;28;20492;-68
2023/05/18 11:11:54;;;;;;;6.57;2.03;;;14.50;99.90;;;;;;5009496;28;20467;-69
2023/05/18 11:14:28;;;;;;;7.90;2.13;;;14.40;99.90;;;;;;5026771;28;20084;-69
2023/05/18 11:17:14;;;;;;;5.32;1.52;;;14.50;99.90;;;;;;5025314;28;20063;-69
2023/05/18 11:19:39;;;;;;;5.80;1.80;;;14.70;99.90;;;;;;5026668;28;20095;-69
2023/05/18 11:22:11;;;;;;;6.13;1.77;;;14.70;99.90;;;;;;5027811;28;20499;-70
2023/05/18 11:24:40;;;;;;;5.65;1.70;;;14.90;99.90;;;;;;5027512;28;20044;-69
2023/05/18 11:27:16;;;;;;;6.68;1.90;;;14.80;99.90;;;;;;5027682;28;20052;-68
2023/05/18 11:29:47;;;;;;;5.03;1.83;;;14.60;99.90;;;;;;5027984;28;20099;-67
2023/05/18 11:32:31;;;;;;;6.43;2.00;;;14.70;99.90;;;;;;5022930;28;20104;-71
2023/05/18 11:34:57;;;;;;;6.85;2.20;;;14.70;99.90;;;;;;5025428;28;20403;-67
2023/05/18 11:37:38;;;;;;;8.38;2.20;;;14.70;99.90;;;;;;5027125;28;20049;-67
2023/05/18 11:40:42;;;;;;;5.43;1.88;;;14.70;99.90;;;;;;5023534;28;20045;-68
2023/05/18 11:43:08;;;;;;;5.57;1.90;;;14.80;99.90;;;;;;5020168;28;20053;-69
2023/05/18 11:45:54;;;;;;;8.38;2.15;;;14.50;99.90;;;;;;5027120;28;20048;-70
2023/05/18 11:48:22;;;;;;;7.13;2.10;;;14.80;99.90;;;;;;5026220;28;20103;-70
2023/05/18 11:50:48;;;;;;;7.13;2.00;;;;;;;;;;5025923;28;20045;-67
2023/05/18 11:53:16;;;;;;;6.15;1.95;;;14.90;99.90;;;;;;5026415;28;20057;-69
2023/05/18 11:55:41;;;;;;;6.70;2.67;;;14.80;99.90;;;;;;5026899;28;20045;-68
2023/05/18 11:58:09;;;;;;;4.90;2.08;;;14.90;99.90;;;;;;5026641;28;20084;-68
2023/05/18 12:00:36;;;;;;;6.18;2.75;;;14.90;99.90;;;;;;5027172;28;20037;-68
2023/05/18 12:03:02;;;;;;;8.80;1.98;;;14.90;99.90;;;;;;5025457;28;20045;-68
2023/05/18 12:05:33;;;;;;;4.88;2.72;;;15.10;99.90;;;;;;5026943;28;20502;-69
2023/05/18 12:07:59;;;;;;;6.70;2.13;;;;;;;;;;5025190;28;20057;-69
2023/05/18 12:10:25;;;;;;;8.38;1.67;;;;;;;;;;5024765;28;20045;-69
2023/05/18 12:12:52;;;;;;;6.00;1.73;;;14.80;99.90;;;;;;5023687;28;20040;-69
2023/05/18 12:15:21;;;;;;;6.63;2.00;;;14.50;99.90;;;;;;5027226;28;20034;-69
2023/05/18 12:17:49;;;;;;;7.32;2.78;;;14.70;99.90;;;;;;5026132;28;20053;-69
2023/05/18 12:20:23;;;;;;;10.23;1.95;;;14.90;99.90;;;;;;5008216;28;20042;-71
2023/05/18 12:22:51;;;;;;;6.15;1.55;;;14.70;99.90;;;;;;5024562;28;20049;-70
2023/05/18 12:25:18;;;;;;;5.70;1.70;;;;;;;;;;5025842;28;20535;-70
2023/05/18 12:27:46;;;;;;;4.90;1.90;;;;;;;;;;5026300;28;20033;-70
2023/05/18 12:34:02;;;;;;;9.35;2.95;;;14.70;99.90;;;;;;5022249;28;20049;-70
2023/05/18 12:36:49;;;;;;;7.70;2.07;;;15.00;99.90;;;;;;4981023;28;20597;-70
2023/05/18 12:39:15;;;;;;;8.07;1.90;;;15.00;99.90;;;;;;5012330;28;20056;-70
2023/05/18 12:41:41;;;;;;;7.57;1.90;;;;;;;;;;5026797;28;20034;-70
2023/05/18 12:44:07;;;;;;;7.07;2.15;;;;;;;;;;5024801;28;20102;-70
2023/05/18 12:46:33;;;;;;;9.35;2.15;;;;;;;;;;5024581;28;20407;-70
2023/05/18 12:49:03;;;;;;;5.68;1.70;;;15.20;99.90;;;;;;5025902;28;20053;-70
2023/05/18 12:51:38;;;;;;;8.02;2.88;;;15.20;99.90;;;;;;5024371;28;20053;-70
2023/05/18 12:54:05;;;;;;;5.97;2.35;;;15.00;99.90;;;;;;5025508;28;20055;-70
2023/05/18 12:57:02;;;;;;;8.52;2.17;;;14.90;99.90;;;;;;5025503;28;20067;-70
2023/05/18 12:59:28;;;;;;;4.18;1.75;;;15.00;99.90;;;;;;5030235;28;20048;-70
2023/05/18 13:01:55;;;;;;;4.80;1.48;;;;;;;;;;5028349;28;20045;-70
2023/05/18 13:04:21;;;;;;;5.32;2.10;;;15.10;99.90;;;;;;5008152;28;20046;-70
2023/05/18 13:06:47;;;;;;;4.25;1.70;;;;;;;;;;5028768;28;20049;-70
2023/05/18 13:09:14;;;;;;;7.60;2.40;;;14.90;99.90;;;;;;5025723;28;20049;-70
2023/05/18 13:11:40;;;;;;;5.95;1.95;;;;;;;;;;5023959;28;20045;-70
2023/05/18 13:14:11;;;;;;;8.25;1.88;;;15.10;99.90;;;;;;5023780;28;20128;-69
2023/05/18 13:16:38;;;;;;;6.65;2.85;;;15.00;99.90;;;;;;5024712;28;20046;-69
2023/05/18 13:19:06;;;;;;;5.88;1.73;;;15.10;99.90;;;;;;5025977;28;20121;-69
2023/05/18 13:21:33;;;;;;;8.00;2.00;;;15.10;99.90;;;;;;5027554;28;20106;-68
2023/05/18 13:23:59;;;;;;;6.20;2.33;;;15.10;99.90;;;;;;5032390;28;20398;-69
2023/05/18 13:26:26;;;;;;;8.25;1.98;;;;;;;;;;5028828;28;20060;-69
2023/05/18 13:28:53;;;;;;;11.20;2.10;;;15.20;99.90;;;;;;5024636;28;20052;-69
2023/05/18 13:31:21;;;;;;;11.52;2.17;;;;;;;;;;5027584;28;20057;-69
2023/05/18 13:33:47;;;;;;;8.38;2.20;;;;;;;;;;5027148;28;20104;-70
2023/05/18 13:36:13;;;;;;;5.10;2.00;;;15.10;99.90;;;;;;5029336;28;20065;-68
2023/05/18 13:38:40;;;;;;;9.77;2.28;;;;;;;;;;5029572;28;20034;-69
2023/05/18 13:41:06;;;;;;;5.50;1.80;;;;;;;;;;5027922;28;20464;-68
2023/05/18 13:43:32;;;;;;;5.82;2.15;;;15.40;99.90;;;;;;5031840;28;20124;-69
2023/05/18 13:45:58;;;;;;;6.93;2.30;;;;;;;;;;5029093;28;20136;-69
2023/05/18 13:48:26;;;;;;;6.93;2.05;;;15.60;99.90;;;;;;5027554;28;20049;-68
2023/05/18 13:50:52;;;;;;;13.13;2.47;;;;;;;;;;5021320;28;20534;-69
2023/05/18 13:53:18;;;;;;;5.82;2.42;;;;;;;;;;5002395;28;20073;-68
2023/05/18 13:55:44;;;;;;;8.95;2.83;;;;;;;;;;5027459;28;20176;-68
2023/05/18 13:58:10;;;;;;;9.45;2.47;;;;;;;;;;5026500;28;20511;-68
2023/05/18 14:00:36;;;;;;;6.07;2.40;;;;;;;;;;5025558;28;20049;-69
2023/05/18 14:03:03;;;;;;;6.78;1.67;;;15.70;99.90;;;;;;5022576;28;20439;-69
2023/05/18 14:05:29;;;;;;;6.70;2.45;;;;;;;;;;5027071;28;20399;-69
2023/05/18 14:07:55;;;;;;;9.38;2.38;;;;;;;;;;5029006;28;20041;-69
2023/05/18 14:10:21;;;;;;;9.65;1.83;;;;;;;;;;5028209;28;20551;-69
2023/05/18 14:12:47;;;;;;;5.00;1.88;;;15.60;99.90;;;;;;5029826;28;20077;-68
2023/05/18 14:15:13;;;;;;;5.25;2.20;;;16.00;99.90;;;;;;5030268;28;20507;-68
2023/05/18 14:17:40;;;;;;;7.90;2.53;;;16.00;99.90;;;;;;5027427;28;20033;-68
2023/05/18 14:20:06;;;;;;;8.25;2.15;;;16.10;99.90;;;;;;5029017;28;20041;-69
2023/05/18 14:23:00;;;;;;;6.68;2.38;;;15.90;99.90;;;;;;5029238;28;20047;-68
2023/05/18 14:25:26;;;;;;;7.07;2.20;;;;;;;;;;5025869;28;20076;-68
2023/05/18 14:27:52;;;;;;;9.18;3.10;;;;;;;;;;5026225;28;20045;-68
2023/05/18 14:30:17;;;;;;;7.13;2.25;;;16.20;99.90;;;;;;5010749;28;20041;-69
2023/05/18 14:32:43;;;;;;;6.40;1.88;;;16.20;99.90;;;;;;5028753;28;20040;-68
2023/05/18 14:35:09;;;;;;;6.45;1.80;;;;;;;;;;5010799;28;20142;-69
2023/05/18 14:37:35;;;;;;;5.47;2.67;;;;;;;;;;5027983;28;20042;-69
2023/05/18 14:40:01;;;;;;;7.90;1.95;;;;;;;;;;5027452;28;20123;-67
2023/05/18 14:42:27;;;;;;;8.15;2.25;;;;;;;;;;5027545;28;20123;-68